Terminal Aerodrome Forecast
Issued by NWS

Home | Current Version | Previous Version | Graphics & Text | Print | Product List | Glossary On
Versions: 1 2 3 4 5 6 7 8 9 10 11 12 13 14 15 16 17 18 19 20
000
FTUS43 KLSX 210100 CCB
TAFSUS
TAF COR
KSUS 210140Z 2101/2124 12007KT P6SM VCTS SCT060CB
      TEMPO 2101/2102 28010G20KT 5SM -TSRA BKN050CB
     FM210200 VRB03KT P6SM SKC
     FM211300 23010KT P6SM SCT050=

USA.gov is the U.S. government's official web portal to all federal, state and local government web resources and services.